Terminal Aerodrome Forecast
Issued by NWS Jackson, MS

Home | Current Version | Previous Version | Text Only | Print | Product List | Glossary On
Versions: 1 2 3 4 5 6 7 8 9 10 11 12 13 14
000
FTUS44 KJAN 290601 RRA
TAFHBG
TAF
KHBG 290601Z 2906/3006 15008KT P6SM BKN015 OVC025
     FM291500 16016G26KT P6SM SCT035 BKN200
     FM300000 15015KT P6SM BKN035=

USA.gov is the U.S. government's official web portal to all federal, state and local government web resources and services.